sensor_id;sensor_type;location;lat;lon;timestamp;P1;durP1;ratioP1;P2;durP2;ratioP2
68247;SDS011;55064;49.636;12.164;2023-03-12T00:01:32;8.18;;;2.88;;
68247;SDS011;55064;49.636;12.164;2023-03-12T00:04:00;7.45;;;3.17;;
68247;SDS011;55064;49.636;12.164;2023-03-12T00:06:26;7.47;;;2.70;;
68247;SDS011;55064;49.636;12.164;2023-03-12T00:14:43;8.95;;;2.20;;
68247;SDS011;55064;49.636;12.164;2023-03-12T00:19:59;6.70;;;2.40;;
68247;SDS011;55064;49.636;12.164;2023-03-12T00:22:24;8.25;;;2.47;;
68247;SDS011;55064;49.636;12.164;2023-03-12T00:24:52;8.75;;;2.80;;
68247;SDS011;55064;49.636;12.164;2023-03-12T00:27:19;8.23;;;2.63;;
68247;SDS011;55064;49.636;12.164;2023-03-12T00:29:46;7.27;;;2.57;;
68247;SDS011;55064;49.636;12.164;2023-03-12T00:32:12;7.65;;;2.67;;
68247;SDS011;55064;49.636;12.164;2023-03-12T00:34:41;8.90;;;2.50;;
68247;SDS011;55064;49.636;12.164;2023-03-12T00:37:06;7.63;;;2.30;;
68247;SDS011;55064;49.636;12.164;2023-03-12T00:39:34;7.55;;;2.42;;
68247;SDS011;55064;49.636;12.164;2023-03-12T00:42:01;8.57;;;2.50;;
68247;SDS011;55064;49.636;12.164;2023-03-12T00:44:26;7.87;;;2.50;;
68247;SDS011;55064;49.636;12.164;2023-03-12T00:46:53;6.50;;;2.30;;
68247;SDS011;55064;49.636;12.164;2023-03-12T00:49:18;8.88;;;2.60;;
68247;SDS011;55064;49.636;12.164;2023-03-12T00:51:46;8.40;;;2.67;;
68247;SDS011;55064;49.636;12.164;2023-03-12T00:54:11;8.10;;;2.57;;
68247;SDS011;55064;49.636;12.164;2023-03-12T00:56:37;9.13;;;2.60;;
68247;SDS011;55064;49.636;12.164;2023-03-12T00:59:02;7.70;;;2.50;;
68247;SDS011;55064;49.636;12.164;2023-03-12T01:01:27;6.87;;;2.40;;
68247;SDS011;55064;49.636;12.164;2023-03-12T01:03:55;8.77;;;3.00;;
68247;SDS011;55064;49.636;12.164;2023-03-12T01:06:23;7.90;;;2.83;;
68247;SDS011;55064;49.636;12.164;2023-03-12T01:08:48;8.75;;;3.20;;
68247;SDS011;55064;49.636;12.164;2023-03-12T01:11:16;9.85;;;3.05;;
68247;SDS011;55064;49.636;12.164;2023-03-12T01:13:44;10.25;;;3.03;;
68247;SDS011;55064;49.636;12.164;2023-03-12T01:16:09;8.93;;;2.97;;
68247;SDS011;55064;49.636;12.164;2023-03-12T01:18:37;12.70;;;3.28;;
68247;SDS011;55064;49.636;12.164;2023-03-12T01:21:03;11.25;;;3.50;;
68247;SDS011;55064;49.636;12.164;2023-03-12T01:23:30;11.73;;;3.83;;
68247;SDS011;55064;49.636;12.164;2023-03-12T01:25:55;8.85;;;3.42;;
68247;SDS011;55064;49.636;12.164;2023-03-12T01:28:21;9.43;;;3.30;;
68247;SDS011;55064;49.636;12.164;2023-03-12T01:30:47;9.55;;;3.80;;
68247;SDS011;55064;49.636;12.164;2023-03-12T01:33:13;8.97;;;3.40;;
68247;SDS011;55064;49.636;12.164;2023-03-12T01:35:38;8.85;;;3.00;;
68247;SDS011;55064;49.636;12.164;2023-03-12T01:38:05;8.30;;;2.50;;
68247;SDS011;55064;49.636;12.164;2023-03-12T01:40:34;7.18;;;2.22;;
68247;SDS011;55064;49.636;12.164;2023-03-12T01:48:47;7.25;;;2.20;;
68247;SDS011;55064;49.636;12.164;2023-03-12T01:51:17;7.65;;;2.08;;
68247;SDS011;55064;49.636;12.164;2023-03-12T01:53:46;8.13;;;2.10;;
68247;SDS011;55064;49.636;12.164;2023-03-12T01:56:17;7.30;;;2.00;;
68247;SDS011;55064;49.636;12.164;2023-03-12T01:58:46;6.10;;;2.20;;
68247;SDS011;55064;49.636;12.164;2023-03-12T02:01:19;6.55;;;2.05;;
68247;SDS011;55064;49.636;12.164;2023-03-12T02:03:46;7.10;;;2.13;;
68247;SDS011;55064;49.636;12.164;2023-03-12T02:06:16;7.40;;;2.08;;
68247;SDS011;55064;49.636;12.164;2023-03-12T02:08:44;6.93;;;1.90;;
68247;SDS011;55064;49.636;12.164;2023-03-12T02:11:11;7.47;;;2.00;;
68247;SDS011;55064;49.636;12.164;2023-03-12T02:13:38;8.70;;;2.20;;
68247;SDS011;55064;49.636;12.164;2023-03-12T02:16:09;7.32;;;2.15;;
68247;SDS011;55064;49.636;12.164;2023-03-12T02:18:35;6.22;;;1.95;;
68247;SDS011;55064;49.636;12.164;2023-03-12T02:21:07;6.80;;;2.10;;
68247;SDS011;55064;49.636;12.164;2023-03-12T02:26:08;7.47;;;1.73;;
68247;SDS011;55064;49.636;12.164;2023-03-12T02:28:35;6.53;;;1.90;;
68247;SDS011;55064;49.636;12.164;2023-03-12T02:31:06;6.80;;;1.97;;
68247;SDS011;55064;49.636;12.164;2023-03-12T02:33:33;7.72;;;2.33;;
68247;SDS011;55064;49.636;12.164;2023-03-12T02:35:58;8.23;;;2.30;;
68247;SDS011;55064;49.636;12.164;2023-03-12T02:38:38;6.40;;;2.10;;
68247;SDS011;55064;49.636;12.164;2023-03-12T02:43:40;6.43;;;1.98;;
68247;SDS011;55064;49.636;12.164;2023-03-12T02:46:10;7.05;;;1.77;;
68247;SDS011;55064;49.636;12.164;2023-03-12T02:48:39;6.23;;;2.00;;
68247;SDS011;55064;49.636;12.164;2023-03-12T02:51:08;5.72;;;1.50;;
68247;SDS011;55064;49.636;12.164;2023-03-12T02:53:36;7.72;;;1.80;;
68247;SDS011;55064;49.636;12.164;2023-03-12T02:56:02;5.87;;;1.90;;
68247;SDS011;55064;49.636;12.164;2023-03-12T02:58:28;7.93;;;2.17;;
68247;SDS011;55064;49.636;12.164;2023-03-12T03:00:54;6.93;;;1.80;;
68247;SDS011;55064;49.636;12.164;2023-03-12T03:03:22;7.22;;;1.70;;
68247;SDS011;55064;49.636;12.164;2023-03-12T03:05:48;6.07;;;1.63;;
68247;SDS011;55064;49.636;12.164;2023-03-12T03:08:14;6.80;;;1.80;;
68247;SDS011;55064;49.636;12.164;2023-03-12T03:10:39;6.30;;;1.83;;
68247;SDS011;55064;49.636;12.164;2023-03-12T03:13:05;5.90;;;1.30;;
68247;SDS011;55064;49.636;12.164;2023-03-12T03:15:33;6.05;;;1.70;;
68247;SDS011;55064;49.636;12.164;2023-03-12T03:18:03;6.72;;;1.70;;
68247;SDS011;55064;49.636;12.164;2023-03-12T03:20:30;6.80;;;1.83;;
68247;SDS011;55064;49.636;12.164;2023-03-12T03:23:00;6.82;;;1.90;;
68247;SDS011;55064;49.636;12.164;2023-03-12T03:25:26;5.17;;;1.50;;
68247;SDS011;55064;49.636;12.164;2023-03-12T03:27:51;6.32;;;1.80;;
68247;SDS011;55064;49.636;12.164;2023-03-12T03:30:20;5.43;;;1.97;;
68247;SDS011;55064;49.636;12.164;2023-03-12T03:32:47;6.13;;;1.83;;
68247;SDS011;55064;49.636;12.164;2023-03-12T03:35:13;7.87;;;1.60;;
68247;SDS011;55064;49.636;12.164;2023-03-12T03:37:41;5.75;;;1.80;;
68247;SDS011;55064;49.636;12.164;2023-03-12T03:40:06;6.57;;;2.17;;
68247;SDS011;55064;49.636;12.164;2023-03-12T03:42:35;6.77;;;1.90;;
68247;SDS011;55064;49.636;12.164;2023-03-12T03:45:01;7.75;;;2.10;;
68247;SDS011;55064;49.636;12.164;2023-03-12T03:47:28;6.53;;;2.00;;
68247;SDS011;55064;49.636;12.164;2023-03-12T03:49:55;8.93;;;2.10;;
68247;SDS011;55064;49.636;12.164;2023-03-12T03:52:23;7.82;;;2.05;;
68247;SDS011;55064;49.636;12.164;2023-03-12T03:54:48;7.97;;;2.17;;
68247;SDS011;55064;49.636;12.164;2023-03-12T03:57:14;7.93;;;2.00;;
68247;SDS011;55064;49.636;12.164;2023-03-12T03:59:39;7.40;;;2.33;;
68247;SDS011;55064;49.636;12.164;2023-03-12T04:02:06;7.13;;;1.87;;
68247;SDS011;55064;49.636;12.164;2023-03-12T04:04:32;6.63;;;2.15;;
68247;SDS011;55064;49.636;12.164;2023-03-12T04:06:57;6.30;;;1.90;;
68247;SDS011;55064;49.636;12.164;2023-03-12T04:09:24;6.73;;;2.03;;
68247;SDS011;55064;49.636;12.164;2023-03-12T04:11:51;6.38;;;1.98;;
68247;SDS011;55064;49.636;12.164;2023-03-12T04:14:17;6.23;;;2.13;;
68247;SDS011;55064;49.636;12.164;2023-03-12T04:16:42;6.55;;;1.90;;
68247;SDS011;55064;49.636;12.164;2023-03-12T04:19:08;8.90;;;2.37;;
68247;SDS011;55064;49.636;12.164;2023-03-12T04:21:37;7.45;;;2.42;;
68247;SDS011;55064;49.636;12.164;2023-03-12T04:24:03;6.73;;;2.10;;
68247;SDS011;55064;49.636;12.164;2023-03-12T04:26:29;8.30;;;2.38;;
68247;SDS011;55064;49.636;12.164;2023-03-12T04:28:55;7.90;;;2.40;;
68247;SDS011;55064;49.636;12.164;2023-03-12T04:31:20;7.05;;;2.25;;
68247;SDS011;55064;49.636;12.164;2023-03-12T04:33:46;6.27;;;1.80;;
68247;SDS011;55064;49.636;12.164;2023-03-12T04:36:13;7.17;;;2.53;;
68247;SDS011;55064;49.636;12.164;2023-03-12T04:38:40;7.60;;;2.38;;
68247;SDS011;55064;49.636;12.164;2023-03-12T04:41:09;6.70;;;2.50;;
68247;SDS011;55064;49.636;12.164;2023-03-12T04:46:15;7.90;;;2.35;;
68247;SDS011;55064;49.636;12.164;2023-03-12T04:48:46;6.30;;;2.20;;
68247;SDS011;55064;49.636;12.164;2023-03-12T04:51:18;6.80;;;2.53;;
68247;SDS011;55064;49.636;12.164;2023-03-12T04:53:58;7.90;;;2.53;;
68247;SDS011;55064;49.636;12.164;2023-03-12T04:56:29;9.40;;;2.75;;
68247;SDS011;55064;49.636;12.164;2023-03-12T04:58:58;6.85;;;2.53;;
68247;SDS011;55064;49.636;12.164;2023-03-12T05:01:37;8.40;;;2.47;;
68247;SDS011;55064;49.636;12.164;2023-03-12T05:09:51;7.40;;;2.70;;
68247;SDS011;55064;49.636;12.164;2023-03-12T05:12:17;8.98;;;2.70;;
68247;SDS011;55064;49.636;12.164;2023-03-12T05:14:43;10.05;;;3.00;;
68247;SDS011;55064;49.636;12.164;2023-03-12T05:22:54;9.50;;;2.70;;
68247;SDS011;55064;49.636;12.164;2023-03-12T05:27:56;7.28;;;2.50;;
68247;SDS011;55064;49.636;12.164;2023-03-12T05:30:22;8.45;;;3.10;;
68247;SDS011;55064;49.636;12.164;2023-03-12T05:32:47;7.37;;;3.07;;
68247;SDS011;55064;49.636;12.164;2023-03-12T05:38:34;10.73;;;3.10;;
68247;SDS011;55064;49.636;12.164;2023-03-12T05:43:56;7.72;;;2.65;;
68247;SDS011;55064;49.636;12.164;2023-03-12T05:46:29;8.45;;;2.83;;
68247;SDS011;55064;49.636;12.164;2023-03-12T05:49:02;9.57;;;2.90;;
68247;SDS011;55064;49.636;12.164;2023-03-12T05:51:34;6.72;;;2.70;;
68247;SDS011;55064;49.636;12.164;2023-03-12T05:54:01;10.10;;;2.90;;
68247;SDS011;55064;49.636;12.164;2023-03-12T05:56:34;8.82;;;2.90;;
68247;SDS011;55064;49.636;12.164;2023-03-12T05:59:01;11.40;;;3.35;;
68247;SDS011;55064;49.636;12.164;2023-03-12T06:01:28;9.27;;;3.00;;
68247;SDS011;55064;49.636;12.164;2023-03-12T06:07:17;11.50;;;3.70;;
68247;SDS011;55064;49.636;12.164;2023-03-12T06:13:06;11.60;;;3.30;;
68247;SDS011;55064;49.636;12.164;2023-03-12T06:18:59;9.52;;;3.78;;
68247;SDS011;55064;49.636;12.164;2023-03-12T06:24:54;8.95;;;3.42;;
68247;SDS011;55064;49.636;12.164;2023-03-12T06:27:20;11.20;;;4.13;;
68247;SDS011;55064;49.636;12.164;2023-03-12T06:29:47;11.68;;;4.05;;
68247;SDS011;55064;49.636;12.164;2023-03-12T06:38:30;14.07;;;4.40;;
68247;SDS011;55064;49.636;12.164;2023-03-12T06:47:18;10.43;;;3.80;;
68247;SDS011;55064;49.636;12.164;2023-03-12T06:53:06;18.65;;;6.00;;
68247;SDS011;55064;49.636;12.164;2023-03-12T06:58:53;11.50;;;4.28;;
68247;SDS011;55064;49.636;12.164;2023-03-12T07:07:47;12.02;;;5.10;;
68247;SDS011;55064;49.636;12.164;2023-03-12T07:16:53;9.85;;;3.58;;
68247;SDS011;55064;49.636;12.164;2023-03-12T07:19:27;8.40;;;2.78;;
68247;SDS011;55064;49.636;12.164;2023-03-12T07:28:43;10.48;;;2.90;;
68247;SDS011;55064;49.636;12.164;2023-03-12T07:37:52;8.23;;;2.67;;
68247;SDS011;55064;49.636;12.164;2023-03-12T07:52:34;8.13;;;2.70;;
68247;SDS011;55064;49.636;12.164;2023-03-12T07:57:50;15.35;;;4.82;;
68247;SDS011;55064;49.636;12.164;2023-03-12T08:03:01;13.35;;;4.55;;
68247;SDS011;55064;49.636;12.164;2023-03-12T08:05:29;9.55;;;3.38;;
68247;SDS011;55064;49.636;12.164;2023-03-12T08:11:08;9.40;;;3.50;;
68247;SDS011;55064;49.636;12.164;2023-03-12T08:13:39;8.50;;;3.55;;
68247;SDS011;55064;49.636;12.164;2023-03-12T08:19:26;10.13;;;3.23;;
68247;SDS011;55064;49.636;12.164;2023-03-12T08:25:13;8.93;;;3.20;;
68247;SDS011;55064;49.636;12.164;2023-03-12T08:34:29;8.65;;;3.00;;
68247;SDS011;55064;49.636;12.164;2023-03-12T08:40:16;7.85;;;2.95;;
68247;SDS011;55064;49.636;12.164;2023-03-12T08:42:44;9.02;;;3.30;;
68247;SDS011;55064;49.636;12.164;2023-03-12T08:48:31;8.20;;;2.60;;
68247;SDS011;55064;49.636;12.164;2023-03-12T08:54:19;8.77;;;2.90;;
68247;SDS011;55064;49.636;12.164;2023-03-12T09:03:10;9.75;;;3.58;;
68247;SDS011;55064;49.636;12.164;2023-03-12T09:08:46;8.53;;;3.30;;
68247;SDS011;55064;49.636;12.164;2023-03-12T09:14:34;9.85;;;3.70;;
68247;SDS011;55064;49.636;12.164;2023-03-12T09:23:43;8.13;;;3.22;;
68247;SDS011;55064;49.636;12.164;2023-03-12T09:29:16;7.75;;;2.97;;
68247;SDS011;55064;49.636;12.164;2023-03-12T09:35:09;9.18;;;3.30;;
68247;SDS011;55064;49.636;12.164;2023-03-12T09:44:01;9.40;;;3.60;;
68247;SDS011;55064;49.636;12.164;2023-03-12T09:46:34;9.05;;;4.22;;
68247;SDS011;55064;49.636;12.164;2023-03-12T09:58:44;8.55;;;3.38;;
68247;SDS011;55064;49.636;12.164;2023-03-12T10:26:52;9.38;;;3.38;;
68247;SDS011;55064;49.636;12.164;2023-03-12T10:29:22;11.00;;;4.38;;
68247;SDS011;55064;49.636;12.164;2023-03-12T10:37:41;14.17;;;5.80;;
68247;SDS011;55064;49.636;12.164;2023-03-12T10:40:10;8.00;;;3.53;;
68247;SDS011;55064;49.636;12.164;2023-03-12T10:42:38;10.70;;;4.00;;
68247;SDS011;55064;49.636;12.164;2023-03-12T10:47:39;10.48;;;3.85;;
68247;SDS011;55064;49.636;12.164;2023-03-12T10:52:42;9.60;;;3.23;;
68247;SDS011;55064;49.636;12.164;2023-03-12T10:55:15;9.02;;;2.95;;
68247;SDS011;55064;49.636;12.164;2023-03-12T10:57:46;7.93;;;2.60;;
68247;SDS011;55064;49.636;12.164;2023-03-12T11:00:17;9.68;;;2.80;;
68247;SDS011;55064;49.636;12.164;2023-03-12T11:02:44;9.70;;;3.30;;
68247;SDS011;55064;49.636;12.164;2023-03-12T11:05:20;11.80;;;3.80;;
68247;SDS011;55064;49.636;12.164;2023-03-12T11:07:48;7.72;;;2.97;;
68247;SDS011;55064;49.636;12.164;2023-03-12T11:10:18;7.47;;;3.25;;
68247;SDS011;55064;49.636;12.164;2023-03-12T11:12:54;7.93;;;2.78;;
68247;SDS011;55064;49.636;12.164;2023-03-12T11:15:48;8.27;;;3.03;;
68247;SDS011;55064;49.636;12.164;2023-03-12T11:18:19;7.85;;;3.00;;
68247;SDS011;55064;49.636;12.164;2023-03-12T11:23:35;8.65;;;3.65;;
68247;SDS011;55064;49.636;12.164;2023-03-12T11:31:44;7.10;;;2.60;;
68247;SDS011;55064;49.636;12.164;2023-03-12T11:34:32;7.55;;;3.13;;
68247;SDS011;55064;49.636;12.164;2023-03-12T11:40:11;6.75;;;2.55;;
68247;SDS011;55064;49.636;12.164;2023-03-12T12:40:15;6.40;;;1.67;;
68247;SDS011;55064;49.636;12.164;2023-03-12T12:45:15;5.60;;;1.33;;
68247;SDS011;55064;49.636;12.164;2023-03-12T12:47:54;6.28;;;1.70;;
68247;SDS011;55064;49.636;12.164;2023-03-12T12:50:25;6.72;;;1.90;;
68247;SDS011;55064;49.636;12.164;2023-03-12T12:58:42;6.05;;;2.08;;
68247;SDS011;55064;49.636;12.164;2023-03-12T13:01:27;7.43;;;2.30;;
68247;SDS011;55064;49.636;12.164;2023-03-12T13:03:56;12.00;;;2.13;;
68247;SDS011;55064;49.636;12.164;2023-03-12T13:06:52;7.55;;;2.58;;
68247;SDS011;55064;49.636;12.164;2023-03-12T13:09:19;6.93;;;2.40;;
68247;SDS011;55064;49.636;12.164;2023-03-12T13:11:46;9.35;;;2.70;;
68247;SDS011;55064;49.636;12.164;2023-03-12T13:14:17;10.82;;;3.60;;
68247;SDS011;55064;49.636;12.164;2023-03-12T13:16:45;8.23;;;2.70;;
68247;SDS011;55064;49.636;12.164;2023-03-12T13:24:18;8.63;;;2.78;;
68247;SDS011;55064;49.636;12.164;2023-03-12T13:31:54;11.00;;;3.90;;
68247;SDS011;55064;49.636;12.164;2023-03-12T13:37:10;10.10;;;3.13;;
68247;SDS011;55064;49.636;12.164;2023-03-12T13:39:41;7.00;;;2.83;;
68247;SDS011;55064;49.636;12.164;2023-03-12T13:44:49;8.68;;;3.35;;
68247;SDS011;55064;49.636;12.164;2023-03-12T13:52:26;9.15;;;3.50;;
68247;SDS011;55064;49.636;12.164;2023-03-12T14:00:19;10.90;;;4.13;;
68247;SDS011;55064;49.636;12.164;2023-03-12T14:03:08;12.32;;;4.53;;
68247;SDS011;55064;49.636;12.164;2023-03-12T14:17:27;11.95;;;4.38;;
68247;SDS011;55064;49.636;12.164;2023-03-12T14:19:58;17.13;;;5.00;;
68247;SDS011;55064;49.636;12.164;2023-03-12T14:22:24;12.00;;;5.53;;
68247;SDS011;55064;49.636;12.164;2023-03-12T14:24:57;13.18;;;5.50;;
68247;SDS011;55064;49.636;12.164;2023-03-12T14:27:28;15.63;;;6.40;;
68247;SDS011;55064;49.636;12.164;2023-03-12T14:29:57;12.70;;;5.55;;
68247;SDS011;55064;49.636;12.164;2023-03-12T14:32:28;13.88;;;5.57;;
68247;SDS011;55064;49.636;12.164;2023-03-12T14:37:31;13.40;;;5.50;;
68247;SDS011;55064;49.636;12.164;2023-03-12T14:40:18;13.93;;;5.32;;
68247;SDS011;55064;49.636;12.164;2023-03-12T14:42:47;15.40;;;6.03;;
68247;SDS011;55064;49.636;12.164;2023-03-12T14:45:13;16.42;;;6.30;;
68247;SDS011;55064;49.636;12.164;2023-03-12T14:47:45;18.10;;;6.80;;
68247;SDS011;55064;49.636;12.164;2023-03-12T14:50:22;15.27;;;5.97;;
68247;SDS011;55064;49.636;12.164;2023-03-12T14:52:48;16.40;;;6.65;;
68247;SDS011;55064;49.636;12.164;2023-03-12T14:55:18;16.92;;;6.70;;
68247;SDS011;55064;49.636;12.164;2023-03-12T14:57:49;14.65;;;6.57;;
68247;SDS011;55064;49.636;12.164;2023-03-12T15:00:27;15.43;;;7.40;;
68247;SDS011;55064;49.636;12.164;2023-03-12T15:02:53;16.20;;;6.55;;
68247;SDS011;55064;49.636;12.164;2023-03-12T15:05:21;20.52;;;7.97;;
68247;SDS011;55064;49.636;12.164;2023-03-12T15:07:50;18.60;;;7.90;;
68247;SDS011;55064;49.636;12.164;2023-03-12T15:10:21;18.48;;;7.25;;
68247;SDS011;55064;49.636;12.164;2023-03-12T15:12:51;17.63;;;7.17;;
68247;SDS011;55064;49.636;12.164;2023-03-12T15:17:52;17.90;;;8.85;;
68247;SDS011;55064;49.636;12.164;2023-03-12T15:20:20;15.38;;;6.65;;
68247;SDS011;55064;49.636;12.164;2023-03-12T15:22:48;17.33;;;7.35;;
68247;SDS011;55064;49.636;12.164;2023-03-12T15:25:26;18.47;;;7.80;;
68247;SDS011;55064;49.636;12.164;2023-03-12T15:28:06;17.60;;;7.53;;
68247;SDS011;55064;49.636;12.164;2023-03-12T15:30:33;21.35;;;9.23;;
68247;SDS011;55064;49.636;12.164;2023-03-12T15:33:41;18.70;;;8.10;;
68247;SDS011;55064;49.636;12.164;2023-03-12T15:41:46;16.98;;;7.30;;
68247;SDS011;55064;49.636;12.164;2023-03-12T15:47:38;19.35;;;8.57;;
68247;SDS011;55064;49.636;12.164;2023-03-12T15:50:10;16.20;;;6.22;;
68247;SDS011;55064;49.636;12.164;2023-03-12T15:55:55;18.15;;;7.88;;
68247;SDS011;55064;49.636;12.164;2023-03-12T15:58:34;16.95;;;7.60;;
68247;SDS011;55064;49.636;12.164;2023-03-12T16:01:10;21.17;;;8.23;;
68247;SDS011;55064;49.636;12.164;2023-03-12T16:06:37;18.50;;;7.80;;
68247;SDS011;55064;49.636;12.164;2023-03-12T16:12:01;18.00;;;7.75;;
68247;SDS011;55064;49.636;12.164;2023-03-12T16:14:39;23.40;;;9.98;;
68247;SDS011;55064;49.636;12.164;2023-03-12T16:17:14;19.73;;;8.60;;
68247;SDS011;55064;49.636;12.164;2023-03-12T16:25:57;20.33;;;8.45;;
68247;SDS011;55064;49.636;12.164;2023-03-12T16:34:48;20.17;;;8.02;;
68247;SDS011;55064;49.636;12.164;2023-03-12T16:37:28;18.85;;;8.60;;
68247;SDS011;55064;49.636;12.164;2023-03-12T16:39:56;22.17;;;7.75;;
68247;SDS011;55064;49.636;12.164;2023-03-12T16:42:27;19.95;;;8.15;;
68247;SDS011;55064;49.636;12.164;2023-03-12T16:44:53;19.17;;;8.90;;
68247;SDS011;55064;49.636;12.164;2023-03-12T16:50:40;19.93;;;8.17;;
68247;SDS011;55064;49.636;12.164;2023-03-12T16:56:34;18.90;;;8.35;;
68247;SDS011;55064;49.636;12.164;2023-03-12T17:02:15;21.42;;;9.07;;
68247;SDS011;55064;49.636;12.164;2023-03-12T17:08:06;18.98;;;8.93;;
68247;SDS011;55064;49.636;12.164;2023-03-12T17:10:40;19.17;;;7.82;;
68247;SDS011;55064;49.636;12.164;2023-03-12T17:13:10;18.45;;;8.88;;
68247;SDS011;55064;49.636;12.164;2023-03-12T17:15:50;17.98;;;8.00;;
68247;SDS011;55064;49.636;12.164;2023-03-12T17:21:13;19.35;;;8.10;;
68247;SDS011;55064;49.636;12.164;2023-03-12T17:26:25;16.77;;;8.02;;
68247;SDS011;55064;49.636;12.164;2023-03-12T17:31:51;16.43;;;8.40;;
68247;SDS011;55064;49.636;12.164;2023-03-12T17:40:02;15.60;;;7.72;;
68247;SDS011;55064;49.636;12.164;2023-03-12T17:46:10;17.57;;;8.90;;
68247;SDS011;55064;49.636;12.164;2023-03-12T17:51:19;17.80;;;8.07;;
68247;SDS011;55064;49.636;12.164;2023-03-12T18:00:04;17.33;;;8.53;;
68247;SDS011;55064;49.636;12.164;2023-03-12T18:05:58;17.35;;;7.80;;
68247;SDS011;55064;49.636;12.164;2023-03-12T18:11:45;16.70;;;7.32;;
68247;SDS011;55064;49.636;12.164;2023-03-12T18:14:24;18.17;;;8.07;;
68247;SDS011;55064;49.636;12.164;2023-03-12T18:16:50;17.88;;;8.35;;
68247;SDS011;55064;49.636;12.164;2023-03-12T18:22:39;16.30;;;7.05;;
68247;SDS011;55064;49.636;12.164;2023-03-12T18:25:07;16.20;;;7.73;;
68247;SDS011;55064;49.636;12.164;2023-03-12T18:33:49;17.52;;;8.40;;
68247;SDS011;55064;49.636;12.164;2023-03-12T18:39:03;19.43;;;8.93;;
68247;SDS011;55064;49.636;12.164;2023-03-12T18:41:30;24.48;;;10.10;;
68247;SDS011;55064;49.636;12.164;2023-03-12T18:43:57;25.67;;;10.40;;
68247;SDS011;55064;49.636;12.164;2023-03-12T18:46:23;27.42;;;12.20;;
68247;SDS011;55064;49.636;12.164;2023-03-12T18:51:43;20.80;;;9.27;;
68247;SDS011;55064;49.636;12.164;2023-03-12T18:56:39;18.27;;;8.23;;
68247;SDS011;55064;49.636;12.164;2023-03-12T18:59:05;18.25;;;8.88;;
68247;SDS011;55064;49.636;12.164;2023-03-12T19:01:32;19.97;;;9.50;;
68247;SDS011;55064;49.636;12.164;2023-03-12T19:04:08;25.05;;;11.57;;
68247;SDS011;55064;49.636;12.164;2023-03-12T19:06:45;34.83;;;16.13;;
68247;SDS011;55064;49.636;12.164;2023-03-12T19:15:18;27.70;;;13.30;;
68247;SDS011;55064;49.636;12.164;2023-03-12T19:24:12;24.75;;;10.85;;
68247;SDS011;55064;49.636;12.164;2023-03-12T19:26:46;27.25;;;12.55;;
68247;SDS011;55064;49.636;12.164;2023-03-12T19:29:13;22.57;;;10.50;;
68247;SDS011;55064;49.636;12.164;2023-03-12T19:31:41;21.52;;;10.82;;
68247;SDS011;55064;49.636;12.164;2023-03-12T19:34:21;22.70;;;9.90;;
68247;SDS011;55064;49.636;12.164;2023-03-12T19:40:08;22.13;;;9.50;;
68247;SDS011;55064;49.636;12.164;2023-03-12T19:56:24;18.97;;;7.90;;
68247;SDS011;55064;49.636;12.164;2023-03-12T19:59:01;16.83;;;7.82;;
68247;SDS011;55064;49.636;12.164;2023-03-12T20:04:13;17.60;;;7.78;;
68247;SDS011;55064;49.636;12.164;2023-03-12T20:10:01;15.68;;;7.40;;
68247;SDS011;55064;49.636;12.164;2023-03-12T20:15:49;15.60;;;6.77;;
68247;SDS011;55064;49.636;12.164;2023-03-12T20:21:38;18.70;;;8.13;;
68247;SDS011;55064;49.636;12.164;2023-03-12T20:27:24;21.17;;;8.88;;
68247;SDS011;55064;49.636;12.164;2023-03-12T20:32:39;20.48;;;9.73;;
68247;SDS011;55064;49.636;12.164;2023-03-12T20:37:52;21.15;;;9.25;;
68247;SDS011;55064;49.636;12.164;2023-03-12T20:40:28;19.02;;;8.30;;
68247;SDS011;55064;49.636;12.164;2023-03-12T20:43:01;17.73;;;8.63;;
68247;SDS011;55064;49.636;12.164;2023-03-12T20:45:32;20.60;;;8.50;;
68247;SDS011;55064;49.636;12.164;2023-03-12T20:54:44;19.88;;;8.80;;
68247;SDS011;55064;49.636;12.164;2023-03-12T20:57:16;21.17;;;9.20;;
68247;SDS011;55064;49.636;12.164;2023-03-12T20:59:43;22.02;;;9.02;;
68247;SDS011;55064;49.636;12.164;2023-03-12T21:05:30;19.73;;;9.15;;
68247;SDS011;55064;49.636;12.164;2023-03-12T21:07:56;19.17;;;8.70;;
68247;SDS011;55064;49.636;12.164;2023-03-12T21:10:22;19.95;;;8.52;;
68247;SDS011;55064;49.636;12.164;2023-03-12T21:12:48;20.20;;;9.30;;
68247;SDS011;55064;49.636;12.164;2023-03-12T21:15:14;19.10;;;8.27;;
68247;SDS011;55064;49.636;12.164;2023-03-12T21:17:41;20.93;;;7.70;;
68247;SDS011;55064;49.636;12.164;2023-03-12T21:20:08;17.83;;;8.10;;
68247;SDS011;55064;49.636;12.164;2023-03-12T21:22:39;17.33;;;7.70;;
68247;SDS011;55064;49.636;12.164;2023-03-12T21:31:31;19.53;;;8.03;;
68247;SDS011;55064;49.636;12.164;2023-03-12T21:34:05;18.70;;;7.90;;
68247;SDS011;55064;49.636;12.164;2023-03-12T21:36:32;19.65;;;8.40;;
68247;SDS011;55064;49.636;12.164;2023-03-12T21:39:00;18.75;;;7.35;;
68247;SDS011;55064;49.636;12.164;2023-03-12T21:41:44;17.77;;;7.75;;
68247;SDS011;55064;49.636;12.164;2023-03-12T21:50:13;16.33;;;7.05;;
68247;SDS011;55064;49.636;12.164;2023-03-12T21:52:51;18.03;;;7.30;;
68247;SDS011;55064;49.636;12.164;2023-03-12T21:55:26;18.33;;;7.45;;
68247;SDS011;55064;49.636;12.164;2023-03-12T21:57:59;16.70;;;7.70;;
68247;SDS011;55064;49.636;12.164;2023-03-12T22:00:29;16.10;;;7.22;;
68247;SDS011;55064;49.636;12.164;2023-03-12T22:03:02;18.93;;;7.67;;
68247;SDS011;55064;49.636;12.164;2023-03-12T22:05:33;18.23;;;7.20;;
68247;SDS011;55064;49.636;12.164;2023-03-12T22:08:06;15.52;;;6.88;;
68247;SDS011;55064;49.636;12.164;2023-03-12T22:13:24;14.95;;;6.65;;
68247;SDS011;55064;49.636;12.164;2023-03-12T22:16:00;17.97;;;7.57;;
68247;SDS011;55064;49.636;12.164;2023-03-12T22:18:38;17.20;;;7.50;;
68247;SDS011;55064;49.636;12.164;2023-03-12T22:21:16;16.00;;;7.17;;
68247;SDS011;55064;49.636;12.164;2023-03-12T22:23:44;16.85;;;7.78;;
68247;SDS011;55064;49.636;12.164;2023-03-12T22:29:10;18.80;;;8.30;;
68247;SDS011;55064;49.636;12.164;2023-03-12T22:31:44;19.13;;;8.55;;
68247;SDS011;55064;49.636;12.164;2023-03-12T22:34:16;16.20;;;7.13;;
68247;SDS011;55064;49.636;12.164;2023-03-12T22:50:09;18.33;;;8.00;;
68247;SDS011;55064;49.636;12.164;2023-03-12T23:03:24;18.75;;;7.93;;
68247;SDS011;55064;49.636;12.164;2023-03-12T23:08:52;18.25;;;7.50;;
68247;SDS011;55064;49.636;12.164;2023-03-12T23:20:25;17.98;;;7.65;;
68247;SDS011;55064;49.636;12.164;2023-03-12T23:25:42;19.08;;;7.93;;
68247;SDS011;55064;49.636;12.164;2023-03-12T23:28:25;19.98;;;8.30;;
68247;SDS011;55064;49.636;12.164;2023-03-12T23:31:01;19.95;;;9.00;;
68247;SDS011;55064;49.636;12.164;2023-03-12T23:33:29;20.40;;;8.93;;
68247;SDS011;55064;49.636;12.164;2023-03-12T23:35:59;21.90;;;9.48;;
68247;SDS011;55064;49.636;12.164;2023-03-12T23:38:27;17.08;;;6.78;;
68247;SDS011;55064;49.636;12.164;2023-03-12T23:40:57;17.42;;;7.22;;
68247;SDS011;55064;49.636;12.164;2023-03-12T23:43:27;18.38;;;6.85;;
68247;SDS011;55064;49.636;12.164;2023-03-12T23:45:56;20.63;;;8.80;;
68247;SDS011;55064;49.636;12.164;2023-03-12T23:48:26;18.15;;;7.57;;
68247;SDS011;55064;49.636;12.164;2023-03-12T23:50:52;19.30;;;8.82;;
68247;SDS011;55064;49.636;12.164;2023-03-12T23:53:21;21.80;;;9.60;;
68247;SDS011;55064;49.636;12.164;2023-03-12T23:55:54;19.38;;;7.65;;
68247;SDS011;55064;49.636;12.164;2023-03-12T23:58:22;20.20;;;7.88;;
